Limon, Colorado
Current Conditions -  °F | °C
As of 4:55 AM on Monday 24 Nov 2014 (Local Time) from KLIC Reporting Station
Clear Clear  
Wind Chill:   Ceiling: Unl
Heat Index: 17°   Visibility: 10mi
Dew Point:   Wind: 15mph
Humidity: 65%   Direction: 300°WNW
Pressure: 29.84"   Gusts: NA
Location:  39.26°N, 103.69°W
Report Text: KLIC 241155Z AUTO 30013KT 10SM CLR M08/M14 A2984 RMK AO2 SLP138 70001 T10831139 11067 21117 56005
Loading
Personal Weather Stations






























Interactive Weather Map New forecast layout! Learn more

10-Day Weather Forecast

Advertisements
Track Severe Weather on mobile